M/V Ian Earle — WDD9798 — position and weather

sailwx.info

Track history (hours):
 
Tides and Currents Weather Stations Pressure Air Temp Water Temp Dewpoint Dewpoint Depression Visibility Wind Speed Wind Dir Waves Ship Positions

M/V Ian Earle

Owner: The Tug Ian Earle, L.L.C., Channelview, TX. More information available from US FCC via Universal Licensing System and Coast Guard Vessel Documentation Center.

Last reported at 2018-Apr-24 09:54 UTC. Time now 2018-Apr-24 14:26 UTC.
Position N 29°45' W 095°06'.

Length 23 m.

Type: Other ship. MMSI: 367316480.

Date/timePositionNaut miles runAvg speedWind from/ knotsBaromVisibWave heightAir tempDewpointWater temp
2018-Apr-24 09:54N 29°45' W 095°06'1 3.5
2018-Apr-24 09:30N 29°46' W 095°05'1 0.9
2018-Apr-24 08:35N 29°46' W 095°05'1 0.1
2018-Apr-23 14:28N 29°45' W 095°06'1 1.1
2018-Apr-23 13:18N 29°46' W 095°06'1 2.1
2018-Apr-23 12:59N 29°46' W 095°05'3 5.5
2018-Apr-23 12:31N 29°44' W 095°03'2 4.8
2018-Apr-23 12:00N 29°42' W 095°01'2 5.0
2018-Apr-23 11:31N 29°41' W 094°59'3 5.5
2018-Apr-23 11:01N 29°38' W 094°58'3 5.9
2018-Apr-23 10:30N 29°36' W 094°57'3 5.9
2018-Apr-23 10:01N 29°33' W 094°55'3 5.7
2018-Apr-23 09:30N 29°31' W 094°53'3 5.7
2018-Apr-23 09:00N 29°28' W 094°51'3 5.6
2018-Apr-23 08:26N 29°26' W 094°50'7 2.5
2018-Apr-23 05:50N 29°26' W 094°42'13 4.5
2018-Apr-23 02:58N 29°32' W 094°29'3 4.5
2018-Apr-23 02:21N 29°34' W 094°27'1 1.8
2018-Apr-23 01:59N 29°34' W 094°26'0 0.0
2018-Apr-23 01:30N 29°34' W 094°26'1 1.8
2018-Apr-23 00:51N 29°34' W 094°25'2 3.7
2018-Apr-23 00:23N 29°36' W 094°24'8 4.8
2018-Apr-22 22:49N 29°39' W 094°16'2 5.0
2018-Apr-22 22:29N 29°40' W 094°14'2 5.0
2018-Apr-22 21:59N 29°41' W 094°12'2 4.8
2018-Apr-22 21:30N 29°41' W 094°09'2 4.9
2018-Apr-22 21:00N 29°43' W 094°07'3 5.1
2018-Apr-22 20:29N 29°45' W 094°05'3 5.2
2018-Apr-22 20:00N 29°46' W 094°03'3 5.4
2018-Apr-22 19:30N 29°48' W 094°00'3 5.6
2018-Apr-22 19:00N 29°50' W 093°57'3 6.2
2018-Apr-22 18:30N 29°52' W 093°56'3 6.2
2018-Apr-22 18:00N 29°55' W 093°53'3 5.9
2018-Apr-22 17:30N 29°57' W 093°52'1 1.9
2018-Apr-22 17:00N 29°58' W 093°52'0 0.0
2018-Apr-22 16:30N 29°58' W 093°52'0 0.0
2018-Apr-22 16:00N 29°58' W 093°52'0 0.0
2018-Apr-22 15:30N 29°58' W 093°52'0 0.0
2018-Apr-22 15:00N 29°58' W 093°52'0 0.0
2018-Apr-22 14:30N 29°58' W 093°52'0 0.0
2018-Apr-22 14:00N 29°58' W 093°52'0 0.0
2018-Apr-22 13:30N 29°58' W 093°52'0 0.0
2018-Apr-22 13:00N 29°58' W 093°52'0 0.0
2018-Apr-22 12:30N 29°58' W 093°52'0 0.0
2018-Apr-22 12:00N 29°58' W 093°52'0 0.0
2018-Apr-22 11:30N 29°58' W 093°52'0 0.0
2018-Apr-22 11:00N 29°58' W 093°52'0 0.0
2018-Apr-22 10:30N 29°58' W 093°52'0 0.0
2018-Apr-22 10:00N 29°58' W 093°52'0 0.0
2018-Apr-22 09:30N 29°58' W 093°52'0 0.0
2018-Apr-22 09:00N 29°58' W 093°52'0 0.0
2018-Apr-22 08:30N 29°58' W 093°52'0 0.0
2018-Apr-22 08:00N 29°58' W 093°52'0 0.0
2018-Apr-22 07:30N 29°58' W 093°52'0 0.0
2018-Apr-22 07:01N 29°58' W 093°52'0 0.0
2018-Apr-22 06:30N 29°58' W 093°52'0 0.0
2018-Apr-22 06:00N 29°58' W 093°52'0 0.0
2018-Apr-22 05:29N 29°58' W 093°52'0 0.0
2018-Apr-22 05:01N 29°58' W 093°52'0 0.0
2018-Apr-22 04:30N 29°58' W 093°52'0 0.0
2018-Apr-22 04:00N 29°58' W 093°52'0 0.0
2018-Apr-22 03:31N 29°58' W 093°52'0 0.0
2018-Apr-22 03:00N 29°58' W 093°52'0 0.0
2018-Apr-22 02:29N 29°58' W 093°52'0 0.0
2018-Apr-22 02:00N 29°58' W 093°52'0 0.0
2018-Apr-22 01:30N 29°58' W 093°52'0 0.0
2018-Apr-22 01:00N 29°58' W 093°52'0 0.0
2018-Apr-22 00:31N 29°58' W 093°52'0 0.0
2018-Apr-22 00:00N 29°58' W 093°52'0 0.0
2018-Apr-21 23:30N 29°58' W 093°52'0 0.0
2018-Apr-21 23:00N 29°58' W 093°52'0 0.0
2018-Apr-21 22:30N 29°58' W 093°52'0 0.0
2018-Apr-21 22:00N 29°58' W 093°52'0 0.0
2018-Apr-21 21:30N 29°58' W 093°52'0 0.0
2018-Apr-21 21:00N 29°58' W 093°52'0 0.0
2018-Apr-21 20:30N 29°58' W 093°52'0 0.0
2018-Apr-21 19:59N 29°58' W 093°52'0 0.0
2018-Apr-21 19:30N 29°58' W 093°52'0 0.0
2018-Apr-21 19:00N 29°58' W 093°52'0 0.6
2018-Apr-21 18:31N 29°58' W 093°51'0 0.0
2018-Apr-21 18:00N 29°58' W 093°51'2 3.7
2018-Apr-21 17:31N 29°59' W 093°53'3 6.8
2018-Apr-21 17:01N 29°60' W 093°57'3 6.0
2018-Apr-21 16:30N 30°01' W 094°00'3 5.9
2018-Apr-21 16:00N 30°03' W 094°02'1 2.4
2018-Apr-21 15:30N 30°04' W 094°03'0 0.0
2018-Apr-21 15:00N 30°04' W 094°03'0 0.6
2018-Apr-21 14:30N 30°04' W 094°03'3 5.8
2018-Apr-21 14:00N 30°01' W 094°02'3 6.9
2018-Apr-21 13:30N 30°01' W 093°58'3 6.2
2018-Apr-21 13:00N 29°59' W 093°55'3 5.9
2018-Apr-21 12:30N 29°58' W 093°51'0 0.7
2018-Apr-21 12:00N 29°58' W 093°51'1 2.3
2018-Apr-21 11:30N 29°57' W 093°52'3 5.5
2018-Apr-21 11:00N 29°55' W 093°53'2 5.0
2018-Apr-21 10:30N 29°53' W 093°55'2 4.8
2018-Apr-21 10:00N 29°51' W 093°57'2 4.4
2018-Apr-21 09:30N 29°49' W 093°58'2 4.5
2018-Apr-21 09:00N 29°48' W 094°00'2 4.7
2018-Apr-21 08:30N 29°46' W 094°02'3 5.3
2018-Apr-21 08:00N 29°45' W 094°05'3 5.3
2018-Apr-21 07:30N 29°43' W 094°07'3 5.3
2018-Apr-21 07:00N 29°41' W 094°10'3 5.2
2018-Apr-21 06:30N 29°41' W 094°12'2 4.5
2018-Apr-21 06:00N 29°40' W 094°15'3 5.4
2018-Apr-21 05:30N 29°38' W 094°17'3 5.0
2018-Apr-21 05:00N 29°37' W 094°20'3 5.4
2018-Apr-21 04:29N 29°36' W 094°23'2 4.1
2018-Apr-21 04:00N 29°35' W 094°25'2 3.9
2018-Apr-21 03:30N 29°34' W 094°27'2 4.6
2018-Apr-21 02:58N 29°32' W 094°29'3 5.6
2018-Apr-21 02:29N 29°31' W 094°31'3 5.8
2018-Apr-21 01:59N 29°30' W 094°34'4 6.3
2018-Apr-21 01:23N 29°28' W 094°38'4 6.4
2018-Apr-21 00:47N 29°26' W 094°42'1 4.8
2018-Apr-21 00:30N 29°25' W 094°43'8 2.7
2018-Apr-20 21:40N 29°28' W 094°51'1 6.1
2018-Apr-20 21:29N 29°29' W 094°52'3 6.0
2018-Apr-20 21:00N 29°32' W 094°54'3 6.0
2018-Apr-20 20:30N 29°34' W 094°56'3 6.5
2018-Apr-20 20:00N 29°37' W 094°57'3 6.8
2018-Apr-20 19:30N 29°40' W 094°59'3 6.0
2018-Apr-20 19:00N 29°42' W 095°01'3 5.5
2018-Apr-20 18:30N 29°44' W 095°03'3 5.1
2018-Apr-20 17:59N 29°46' W 095°06'0 0.3
2018-Apr-20 16:37N 29°46' W 095°06'0 0.9
2018-Apr-20 16:30N 29°46' W 095°06'1 0.3
2018-Apr-20 13:53N 29°46' W 095°05'2 5.9
2018-Apr-20 13:28N 29°44' W 095°07'2 5.2
2018-Apr-20 12:59N 29°45' W 095°10'0 0.3
2018-Apr-20 11:40N 29°45' W 095°10'1 2.4
2018-Apr-20 11:21N 29°45' W 095°10'3 6.0
2018-Apr-20 10:55N 29°44' W 095°07'2 0.6
2018-Apr-20 07:57N 29°46' W 095°05'3 7.2
2018-Apr-20 07:30N 29°44' W 095°08'0 0.2
2018-Apr-20 06:06N 29°44' W 095°09'1 7.7
2018-Apr-20 05:57N 29°44' W 095°07'1 0.2
2018-Apr-20 01:24N 29°45' W 095°06'3 7.2
2018-Apr-20 01:00N 29°45' W 095°10'4 1.1
2018-Apr-19 21:46N 29°44' W 095°14'3 3.9
2018-Apr-19 21:05N 29°45' W 095°11'1 3.9
2018-Apr-19 20:53N 29°45' W 095°10'2 3.9
2018-Apr-19 20:28N 29°44' W 095°09'2 3.9
2018-Apr-19 20:00N 29°45' W 095°06'2 4.0
2018-Apr-19 19:30N 29°46' W 095°05'1 0.4
2018-Apr-19 17:54N 29°47' W 095°05'0 0.1
2018-Apr-19 17:29N 29°47' W 095°05'0 0.0
2018-Apr-19 16:59N 29°47' W 095°05'0 0.0
2018-Apr-19 16:29N 29°47' W 095°05'0 0.0
2018-Apr-19 16:00N 29°47' W 095°05'0 0.0
2018-Apr-19 15:30N 29°47' W 095°05'0 0.0
2018-Apr-19 15:00N 29°47' W 095°05'0 0.0
2018-Apr-19 14:31N 29°47' W 095°05'0 0.0
2018-Apr-19 13:58N 29°47' W 095°05'0 0.0
2018-Apr-19 13:30N 29°47' W 095°05'0 0.0
2018-Apr-19 13:00N 29°47' W 095°05'4 0.5
2018-Apr-19 05:06N 29°44' W 095°08'1 7.3
2018-Apr-19 04:57N 29°44' W 095°09'5 5.2
2018-Apr-19 03:59N 29°43' W 095°15'4 1.7
2018-Apr-19 01:23N 29°45' W 095°10'3 5.6
2018-Apr-19 00:47N 29°45' W 095°07'2 6.4
2018-Apr-19 00:30N 29°46' W 095°05'2 3.7
2018-Apr-19 00:00N 29°47' W 095°04'2 4.4
2018-Apr-18 23:30N 29°46' W 095°06'0 0.5
2018-Apr-18 22:49N 29°46' W 095°06'0 0.0
2018-Apr-18 21:32N 29°46' W 095°06'0 0.1
2018-Apr-18 20:32N 29°46' W 095°06'0 0.0
2018-Apr-18 20:28N 29°46' W 095°06'0 0.0
2018-Apr-18 19:47N 29°46' W 095°06'1 2.2
2018-Apr-18 19:29N 29°46' W 095°05'2 1.0
2018-Apr-18 17:44N 29°47' W 095°04'1 3.6
2018-Apr-18 17:25N 29°46' W 095°05'0 0.0
2018-Apr-18 17:00N 29°46' W 095°05'0 0.0
2018-Apr-18 16:30N 29°46' W 095°05'0 0.0
2018-Apr-18 15:59N 29°46' W 095°05'0 0.0
2018-Apr-18 15:31N 29°46' W 095°05'0 0.0
2018-Apr-18 15:00N 29°46' W 095°05'0 0.0
2018-Apr-18 14:30N 29°46' W 095°05'0 0.0
2018-Apr-18 13:55N 29°46' W 095°05'0 0.5
2018-Apr-18 13:30N 29°46' W 095°05'1 2.1
2018-Apr-18 13:00N 29°47' W 095°04'0 0.0
2018-Apr-18 12:27N 29°47' W 095°04'1 0.4
2018-Apr-18 10:42N 29°47' W 095°05'1 4.8
2018-Apr-18 10:25N 29°46' W 095°05'2 0.8
2018-Apr-18 08:09N 29°44' W 095°07'1 7.8
2018-Apr-18 08:00N 29°44' W 095°08'8 2.2
2018-Apr-18 04:23N 29°45' W 095°17'1 1.0
2018-Apr-18 03:20N 29°44' W 095°16'2 4.4
2018-Apr-18 02:59N 29°43' W 095°15'3 6.1
2018-Apr-18 02:28N 29°45' W 095°12'4 6.5
2018-Apr-18 01:55N 29°44' W 095°07'2 5.1
2018-Apr-18 01:30N 29°45' W 095°06'2 1.3
2018-Apr-18 00:03N 29°47' W 095°04'1 6.0
2018-Apr-17 23:51N 29°46' W 095°05'1 0.4
2018-Apr-17 21:00N 29°46' W 095°06'0 0.0
2018-Apr-17 19:47N 29°46' W 095°06'0 0.0
2018-Apr-17 19:31N 29°46' W 095°06'0 0.0
2018-Apr-17 18:53N 29°46' W 095°06'0 0.0
2018-Apr-17 18:30N 29°46' W 095°06'1 2.5
2018-Apr-17 18:01N 29°46' W 095°05'1 1.1
2018-Apr-17 17:28N 29°47' W 095°04'1 0.3
2018-Apr-17 14:27N 29°46' W 095°05'0 1.0
2018-Apr-17 14:00N 29°46' W 095°05'1 2.2
2018-Apr-17 13:31N 29°47' W 095°04'1 1.4
2018-Apr-17 13:00N 29°47' W 095°04'2 3.6
2018-Apr-17 12:30N 29°45' W 095°06'1 2.2
2018-Apr-17 12:00N 29°46' W 095°07'0 0.0
2018-Apr-17 09:56N 29°46' W 095°07'0 0.0
2018-Apr-17 09:29N 29°46' W 095°07'0 0.0
2018-Apr-17 08:50N 29°46' W 095°07'0 0.0
2018-Apr-17 08:28N 29°46' W 095°07'0 0.0
2018-Apr-17 07:07N 29°46' W 095°07'0 0.0
2018-Apr-17 07:00N 29°46' W 095°07'0 0.0
2018-Apr-17 06:24N 29°46' W 095°07'0 0.0
2018-Apr-17 05:37N 29°46' W 095°07'0 0.0
2018-Apr-17 05:31N 29°46' W 095°07'0 0.0
2018-Apr-17 05:00N 29°46' W 095°07'0 0.0
2018-Apr-16 22:18N 29°46' W 095°07'1 1.9
2018-Apr-16 21:57N 29°46' W 095°06'1 2.6
2018-Apr-16 21:30N 29°46' W 095°05'2 3.0
2018-Apr-16 20:58N 29°47' W 095°04'0 0.1
2018-Apr-16 20:30N 29°47' W 095°04'0 0.0
2018-Apr-16 20:00N 29°47' W 095°04'2 3.8
2018-Apr-16 19:30N 29°46' W 095°05'1 0.9
2018-Apr-16 18:41N 29°46' W 095°06'1 3.9
2018-Apr-16 18:31N 29°46' W 095°05'1 2.4
2018-Apr-16 18:00N 29°45' W 095°06'1 1.8
2018-Apr-16 17:30N 29°46' W 095°06'0 0.3
2018-Apr-16 15:39N 29°46' W 095°05'1 5.6
2018-Apr-16 15:31N 29°46' W 095°05'1 1.0
2018-Apr-16 14:51N 29°47' W 095°04'2 4.5
2018-Apr-16 14:30N 29°46' W 095°05'2 4.7
2018-Apr-16 13:59N 29°44' W 095°07'0 0.7
2018-Apr-16 13:21N 29°44' W 095°08'0 0.5
2018-Apr-16 12:55N 29°44' W 095°08'3 5.5
2018-Apr-16 12:28N 29°46' W 095°06'1 0.0
2018-Apr-15 22:40N 29°46' W 095°06'1 4.4
2018-Apr-15 22:30N 29°46' W 095°05'0 0.1
2018-Apr-15 20:59N 29°46' W 095°05'2 4.4
2018-Apr-15 20:27N 29°44' W 095°07'2 5.4
2018-Apr-15 20:00N 29°45' W 095°10'0 0.2
2018-Apr-15 18:08N 29°45' W 095°10'2 5.8
2018-Apr-15 17:51N 29°44' W 095°09'2 5.9
2018-Apr-15 17:30N 29°45' W 095°06'2 4.5
2018-Apr-15 17:00N 29°46' W 095°05'1 1.3
2018-Apr-15 16:22N 29°47' W 095°04'2 4.7
2018-Apr-15 16:00N 29°46' W 095°06'1 1.1
2018-Apr-15 15:30N 29°46' W 095°06'1 1.6
2018-Apr-15 15:00N 29°46' W 095°05'1 1.3
2018-Apr-15 14:28N 29°46' W 095°05'2 4.3
2018-Apr-15 13:59N 29°45' W 095°06'3 6.4
2018-Apr-15 13:28N 29°45' W 095°10'3 6.3
2018-Apr-15 12:56N 29°44' W 095°14'1 0.5
2018-Apr-15 11:24N 29°43' W 095°14'4 6.1
2018-Apr-15 10:43N 29°45' W 095°10'1 6.8
2018-Apr-15 10:30N 29°44' W 095°09'3 6.6
2018-Apr-15 10:00N 29°46' W 095°05'0 0.1
2018-Apr-15 07:36N 29°46' W 095°06'1 6.7
2018-Apr-15 07:31N 29°46' W 095°05'0 0.2
2018-Apr-15 05:32N 29°46' W 095°05'0 2.0
2018-Apr-15 05:30N 29°46' W 095°05'0 0.0
2018-Apr-15 05:00N 29°46' W 095°05'1 0.3
2018-Apr-15 01:29N 29°46' W 095°06'3 5.8
2018-Apr-15 01:00N 29°44' W 095°08'5 1.3
2018-Apr-14 21:14N 29°44' W 095°13'3 1.4
2018-Apr-14 19:04N 29°45' W 095°10'0 5.2
2018-Apr-14 18:59N 29°45' W 095°10'2 5.0
2018-Apr-14 18:30N 29°44' W 095°07'3 5.5
2018-Apr-14 18:00N 29°46' W 095°05'0 0.2
2018-Apr-14 16:39N 29°46' W 095°05'1 6.9
2018-Apr-14 16:26N 29°45' W 095°06'0 0.3
2018-Apr-14 15:56N 29°45' W 095°06'3 7.0
2018-Apr-14 15:30N 29°47' W 095°04'2 4.0
2018-Apr-14 15:00N 29°46' W 095°05'1 0.3
2018-Apr-14 12:51N 29°45' W 095°06'1 3.4
2018-Apr-14 12:29N 29°46' W 095°05'2 5.2
2018-Apr-14 12:00N 29°44' W 095°07'0 0.3
2018-Apr-14 11:27N 29°44' W 095°07'  
Track history (hours):
 
Tides and Currents Weather Stations Pressure Air Temp Water Temp Dewpoint Dewpoint Depression Visibility Wind Speed Wind Dir Waves Ship Positions

M/V Ian Earle

Owner: The Tug Ian Earle, L.L.C., Channelview, TX. More information available from US FCC via Universal Licensing System and Coast Guard Vessel Documentation Center.

Last reported at 2018-Apr-24 09:54 UTC. Time now 2018-Apr-24 14:26 UTC.
Position N 29°45' W 095°06'.

Length 23 m.

Type: Other ship. MMSI: 367316480.

Date/timePositionNaut miles runAvg speedWind from/ knotsBaromVisibWave heightAir tempDewpointWater temp
2018-Apr-24 09:54N 29°45' W 095°06'1 3.5
2018-Apr-24 09:30N 29°46' W 095°05'1 0.9
2018-Apr-24 08:35N 29°46' W 095°05'1 0.1
2018-Apr-23 14:28N 29°45' W 095°06'1 1.1
2018-Apr-23 13:18N 29°46' W 095°06'1 2.1
2018-Apr-23 12:59N 29°46' W 095°05'3 5.5
2018-Apr-23 12:31N 29°44' W 095°03'2 4.8
2018-Apr-23 12:00N 29°42' W 095°01'2 5.0
2018-Apr-23 11:31N 29°41' W 094°59'3 5.5
2018-Apr-23 11:01N 29°38' W 094°58'3 5.9
2018-Apr-23 10:30N 29°36' W 094°57'3 5.9
2018-Apr-23 10:01N 29°33' W 094°55'3 5.7
2018-Apr-23 09:30N 29°31' W 094°53'3 5.7
2018-Apr-23 09:00N 29°28' W 094°51'3 5.6
2018-Apr-23 08:26N 29°26' W 094°50'7 2.5
2018-Apr-23 05:50N 29°26' W 094°42'13 4.5
2018-Apr-23 02:58N 29°32' W 094°29'3 4.5
2018-Apr-23 02:21N 29°34' W 094°27'1 1.8
2018-Apr-23 01:59N 29°34' W 094°26'0 0.0
2018-Apr-23 01:30N 29°34' W 094°26'1 1.8
2018-Apr-23 00:51N 29°34' W 094°25'2 3.7
2018-Apr-23 00:23N 29°36' W 094°24'8 4.8
2018-Apr-22 22:49N 29°39' W 094°16'2 5.0
2018-Apr-22 22:29N 29°40' W 094°14'2 5.0
2018-Apr-22 21:59N 29°41' W 094°12'2 4.8
2018-Apr-22 21:30N 29°41' W 094°09'2 4.9
2018-Apr-22 21:00N 29°43' W 094°07'3 5.1
2018-Apr-22 20:29N 29°45' W 094°05'3 5.2
2018-Apr-22 20:00N 29°46' W 094°03'3 5.4
2018-Apr-22 19:30N 29°48' W 094°00'3 5.6
2018-Apr-22 19:00N 29°50' W 093°57'3 6.2
2018-Apr-22 18:30N 29°52' W 093°56'3 6.2
2018-Apr-22 18:00N 29°55' W 093°53'3 5.9
2018-Apr-22 17:30N 29°57' W 093°52'1 1.9
2018-Apr-22 17:00N 29°58' W 093°52'0 0.0
2018-Apr-22 16:30N 29°58' W 093°52'0 0.0
2018-Apr-22 16:00N 29°58' W 093°52'0 0.0
2018-Apr-22 15:30N 29°58' W 093°52'0 0.0
2018-Apr-22 15:00N 29°58' W 093°52'0 0.0
2018-Apr-22 14:30N 29°58' W 093°52'0 0.0
2018-Apr-22 14:00N 29°58' W 093°52'0 0.0
2018-Apr-22 13:30N 29°58' W 093°52'0 0.0
2018-Apr-22 13:00N 29°58' W 093°52'0 0.0
2018-Apr-22 12:30N 29°58' W 093°52'0 0.0
2018-Apr-22 12:00N 29°58' W 093°52'0 0.0
2018-Apr-22 11:30N 29°58' W 093°52'0 0.0
2018-Apr-22 11:00N 29°58' W 093°52'0 0.0
2018-Apr-22 10:30N 29°58' W 093°52'0 0.0
2018-Apr-22 10:00N 29°58' W 093°52'0 0.0
2018-Apr-22 09:30N 29°58' W 093°52'0 0.0
2018-Apr-22 09:00N 29°58' W 093°52'0 0.0
2018-Apr-22 08:30N 29°58' W 093°52'0 0.0
2018-Apr-22 08:00N 29°58' W 093°52'0 0.0
2018-Apr-22 07:30N 29°58' W 093°52'0 0.0
2018-Apr-22 07:01N 29°58' W 093°52'0 0.0
2018-Apr-22 06:30N 29°58' W 093°52'0 0.0
2018-Apr-22 06:00N 29°58' W 093°52'0 0.0
2018-Apr-22 05:29N 29°58' W 093°52'0 0.0
2018-Apr-22 05:01N 29°58' W 093°52'0 0.0
2018-Apr-22 04:30N 29°58' W 093°52'0 0.0
2018-Apr-22 04:00N 29°58' W 093°52'0 0.0
2018-Apr-22 03:31N 29°58' W 093°52'0 0.0
2018-Apr-22 03:00N 29°58' W 093°52'0 0.0
2018-Apr-22 02:29N 29°58' W 093°52'0 0.0
2018-Apr-22 02:00N 29°58' W 093°52'0 0.0
2018-Apr-22 01:30N 29°58' W 093°52'0 0.0
2018-Apr-22 01:00N 29°58' W 093°52'0 0.0
2018-Apr-22 00:31N 29°58' W 093°52'0 0.0
2018-Apr-22 00:00N 29°58' W 093°52'0 0.0
2018-Apr-21 23:30N 29°58' W 093°52'0 0.0
2018-Apr-21 23:00N 29°58' W 093°52'0 0.0
2018-Apr-21 22:30N 29°58' W 093°52'0 0.0
2018-Apr-21 22:00N 29°58' W 093°52'0 0.0
2018-Apr-21 21:30N 29°58' W 093°52'0 0.0
2018-Apr-21 21:00N 29°58' W 093°52'0 0.0
2018-Apr-21 20:30N 29°58' W 093°52'0 0.0
2018-Apr-21 19:59N 29°58' W 093°52'0 0.0
2018-Apr-21 19:30N 29°58' W 093°52'0 0.0
2018-Apr-21 19:00N 29°58' W 093°52'0 0.6
2018-Apr-21 18:31N 29°58' W 093°51'0 0.0
2018-Apr-21 18:00N 29°58' W 093°51'2 3.7
2018-Apr-21 17:31N 29°59' W 093°53'3 6.8
2018-Apr-21 17:01N 29°60' W 093°57'3 6.0
2018-Apr-21 16:30N 30°01' W 094°00'3 5.9
2018-Apr-21 16:00N 30°03' W 094°02'1 2.4
2018-Apr-21 15:30N 30°04' W 094°03'0 0.0
2018-Apr-21 15:00N 30°04' W 094°03'0 0.6
2018-Apr-21 14:30N 30°04' W 094°03'3 5.8
2018-Apr-21 14:00N 30°01' W 094°02'3 6.9
2018-Apr-21 13:30N 30°01' W 093°58'3 6.2
2018-Apr-21 13:00N 29°59' W 093°55'3 5.9
2018-Apr-21 12:30N 29°58' W 093°51'0 0.7
2018-Apr-21 12:00N 29°58' W 093°51'1 2.3
2018-Apr-21 11:30N 29°57' W 093°52'3 5.5
2018-Apr-21 11:00N 29°55' W 093°53'2 5.0
2018-Apr-21 10:30N 29°53' W 093°55'2 4.8
2018-Apr-21 10:00N 29°51' W 093°57'2 4.4
2018-Apr-21 09:30N 29°49' W 093°58'2 4.5
2018-Apr-21 09:00N 29°48' W 094°00'2 4.7
2018-Apr-21 08:30N 29°46' W 094°02'3 5.3
2018-Apr-21 08:00N 29°45' W 094°05'3 5.3
2018-Apr-21 07:30N 29°43' W 094°07'3 5.3
2018-Apr-21 07:00N 29°41' W 094°10'3 5.2
2018-Apr-21 06:30N 29°41' W 094°12'2 4.5
2018-Apr-21 06:00N 29°40' W 094°15'3 5.4
2018-Apr-21 05:30N 29°38' W 094°17'3 5.0
2018-Apr-21 05:00N 29°37' W 094°20'3 5.4
2018-Apr-21 04:29N 29°36' W 094°23'2 4.1
2018-Apr-21 04:00N 29°35' W 094°25'2 3.9
2018-Apr-21 03:30N 29°34' W 094°27'2 4.6
2018-Apr-21 02:58N 29°32' W 094°29'3 5.6
2018-Apr-21 02:29N 29°31' W 094°31'3 5.8
2018-Apr-21 01:59N 29°30' W 094°34'4 6.3
2018-Apr-21 01:23N 29°28' W 094°38'4 6.4
2018-Apr-21 00:47N 29°26' W 094°42'1 4.8
2018-Apr-21 00:30N 29°25' W 094°43'8 2.7
2018-Apr-20 21:40N 29°28' W 094°51'1 6.1
2018-Apr-20 21:29N 29°29' W 094°52'3 6.0
2018-Apr-20 21:00N 29°32' W 094°54'3 6.0
2018-Apr-20 20:30N 29°34' W 094°56'3 6.5
2018-Apr-20 20:00N 29°37' W 094°57'3 6.8
2018-Apr-20 19:30N 29°40' W 094°59'3 6.0
2018-Apr-20 19:00N 29°42' W 095°01'3 5.5
2018-Apr-20 18:30N 29°44' W 095°03'3 5.1
2018-Apr-20 17:59N 29°46' W 095°06'0 0.3
2018-Apr-20 16:37N 29°46' W 095°06'0 0.9
2018-Apr-20 16:30N 29°46' W 095°06'1 0.3
2018-Apr-20 13:53N 29°46' W 095°05'2 5.9
2018-Apr-20 13:28N 29°44' W 095°07'2 5.2
2018-Apr-20 12:59N 29°45' W 095°10'0 0.3
2018-Apr-20 11:40N 29°45' W 095°10'1 2.4
2018-Apr-20 11:21N 29°45' W 095°10'3 6.0
2018-Apr-20 10:55N 29°44' W 095°07'2 0.6
2018-Apr-20 07:57N 29°46' W 095°05'3 7.2
2018-Apr-20 07:30N 29°44' W 095°08'0 0.2
2018-Apr-20 06:06N 29°44' W 095°09'1 7.7
2018-Apr-20 05:57N 29°44' W 095°07'1 0.2
2018-Apr-20 01:24N 29°45' W 095°06'3 7.2
2018-Apr-20 01:00N 29°45' W 095°10'4 1.1
2018-Apr-19 21:46N 29°44' W 095°14'3 3.9
2018-Apr-19 21:05N 29°45' W 095°11'1 3.9
2018-Apr-19 20:53N 29°45' W 095°10'2 3.9
2018-Apr-19 20:28N 29°44' W 095°09'2 3.9
2018-Apr-19 20:00N 29°45' W 095°06'2 4.0
2018-Apr-19 19:30N 29°46' W 095°05'1 0.4
2018-Apr-19 17:54N 29°47' W 095°05'0 0.1
2018-Apr-19 17:29N 29°47' W 095°05'0 0.0
2018-Apr-19 16:59N 29°47' W 095°05'0 0.0
2018-Apr-19 16:29N 29°47' W 095°05'0 0.0
2018-Apr-19 16:00N 29°47' W 095°05'0 0.0
2018-Apr-19 15:30N 29°47' W 095°05'0 0.0
2018-Apr-19 15:00N 29°47' W 095°05'0 0.0
2018-Apr-19 14:31N 29°47' W 095°05'0 0.0
2018-Apr-19 13:58N 29°47' W 095°05'0 0.0
2018-Apr-19 13:30N 29°47' W 095°05'0 0.0
2018-Apr-19 13:00N 29°47' W 095°05'4 0.5
2018-Apr-19 05:06N 29°44' W 095°08'1 7.3
2018-Apr-19 04:57N 29°44' W 095°09'5 5.2
2018-Apr-19 03:59N 29°43' W 095°15'4 1.7
2018-Apr-19 01:23N 29°45' W 095°10'3 5.6
2018-Apr-19 00:47N 29°45' W 095°07'2 6.4
2018-Apr-19 00:30N 29°46' W 095°05'2 3.7
2018-Apr-19 00:00N 29°47' W 095°04'2 4.4
2018-Apr-18 23:30N 29°46' W 095°06'0 0.5
2018-Apr-18 22:49N 29°46' W 095°06'0 0.0
2018-Apr-18 21:32N 29°46' W 095°06'0 0.1
2018-Apr-18 20:32N 29°46' W 095°06'0 0.0
2018-Apr-18 20:28N 29°46' W 095°06'0 0.0
2018-Apr-18 19:47N 29°46' W 095°06'1 2.2
2018-Apr-18 19:29N 29°46' W 095°05'2 1.0
2018-Apr-18 17:44N 29°47' W 095°04'1 3.6
2018-Apr-18 17:25N 29°46' W 095°05'0 0.0
2018-Apr-18 17:00N 29°46' W 095°05'0 0.0
2018-Apr-18 16:30N 29°46' W 095°05'0 0.0
2018-Apr-18 15:59N 29°46' W 095°05'0 0.0
2018-Apr-18 15:31N 29°46' W 095°05'0 0.0
2018-Apr-18 15:00N 29°46' W 095°05'0 0.0
2018-Apr-18 14:30N 29°46' W 095°05'0 0.0
2018-Apr-18 13:55N 29°46' W 095°05'0 0.5
2018-Apr-18 13:30N 29°46' W 095°05'1 2.1
2018-Apr-18 13:00N 29°47' W 095°04'0 0.0
2018-Apr-18 12:27N 29°47' W 095°04'1 0.4
2018-Apr-18 10:42N 29°47' W 095°05'1 4.8
2018-Apr-18 10:25N 29°46' W 095°05'2 0.8
2018-Apr-18 08:09N 29°44' W 095°07'1 7.8
2018-Apr-18 08:00N 29°44' W 095°08'8 2.2
2018-Apr-18 04:23N 29°45' W 095°17'1 1.0
2018-Apr-18 03:20N 29°44' W 095°16'2 4.4
2018-Apr-18 02:59N 29°43' W 095°15'3 6.1
2018-Apr-18 02:28N 29°45' W 095°12'4 6.5
2018-Apr-18 01:55N 29°44' W 095°07'2 5.1
2018-Apr-18 01:30N 29°45' W 095°06'2 1.3
2018-Apr-18 00:03N 29°47' W 095°04'1 6.0
2018-Apr-17 23:51N 29°46' W 095°05'1 0.4
2018-Apr-17 21:00N 29°46' W 095°06'0 0.0
2018-Apr-17 19:47N 29°46' W 095°06'0 0.0
2018-Apr-17 19:31N 29°46' W 095°06'0 0.0
2018-Apr-17 18:53N 29°46' W 095°06'0 0.0
2018-Apr-17 18:30N 29°46' W 095°06'1 2.5
2018-Apr-17 18:01N 29°46' W 095°05'1 1.1
2018-Apr-17 17:28N 29°47' W 095°04'1 0.3
2018-Apr-17 14:27N 29°46' W 095°05'0 1.0
2018-Apr-17 14:00N 29°46' W 095°05'1 2.2
2018-Apr-17 13:31N 29°47' W 095°04'1 1.4
2018-Apr-17 13:00N 29°47' W 095°04'2 3.6
2018-Apr-17 12:30N 29°45' W 095°06'1 2.2
2018-Apr-17 12:00N 29°46' W 095°07'0 0.0
2018-Apr-17 09:56N 29°46' W 095°07'0 0.0
2018-Apr-17 09:29N 29°46' W 095°07'0 0.0
2018-Apr-17 08:50N 29°46' W 095°07'0 0.0
2018-Apr-17 08:28N 29°46' W 095°07'0 0.0
2018-Apr-17 07:07N 29°46' W 095°07'0 0.0
2018-Apr-17 07:00N 29°46' W 095°07'0 0.0
2018-Apr-17 06:24N 29°46' W 095°07'0 0.0
2018-Apr-17 05:37N 29°46' W 095°07'0 0.0
2018-Apr-17 05:31N 29°46' W 095°07'0 0.0
2018-Apr-17 05:00N 29°46' W 095°07'0 0.0
2018-Apr-16 22:18N 29°46' W 095°07'1 1.9
2018-Apr-16 21:57N 29°46' W 095°06'1 2.6
2018-Apr-16 21:30N 29°46' W 095°05'2 3.0
2018-Apr-16 20:58N 29°47' W 095°04'0 0.1
2018-Apr-16 20:30N 29°47' W 095°04'0 0.0
2018-Apr-16 20:00N 29°47' W 095°04'2 3.8
2018-Apr-16 19:30N 29°46' W 095°05'1 0.9
2018-Apr-16 18:41N 29°46' W 095°06'1 3.9
2018-Apr-16 18:31N 29°46' W 095°05'1 2.4
2018-Apr-16 18:00N 29°45' W 095°06'1 1.8
2018-Apr-16 17:30N 29°46' W 095°06'0 0.3
2018-Apr-16 15:39N 29°46' W 095°05'1 5.6
2018-Apr-16 15:31N 29°46' W 095°05'1 1.0
2018-Apr-16 14:51N 29°47' W 095°04'2 4.5
2018-Apr-16 14:30N 29°46' W 095°05'2 4.7
2018-Apr-16 13:59N 29°44' W 095°07'0 0.7
2018-Apr-16 13:21N 29°44' W 095°08'0 0.5
2018-Apr-16 12:55N 29°44' W 095°08'3 5.5
2018-Apr-16 12:28N 29°46' W 095°06'1 0.0
2018-Apr-15 22:40N 29°46' W 095°06'1 4.4
2018-Apr-15 22:30N 29°46' W 095°05'0 0.1
2018-Apr-15 20:59N 29°46' W 095°05'2 4.4
2018-Apr-15 20:27N 29°44' W 095°07'2 5.4
2018-Apr-15 20:00N 29°45' W 095°10'0 0.2
2018-Apr-15 18:08N 29°45' W 095°10'2 5.8
2018-Apr-15 17:51N 29°44' W 095°09'2 5.9
2018-Apr-15 17:30N 29°45' W 095°06'2 4.5
2018-Apr-15 17:00N 29°46' W 095°05'1 1.3
2018-Apr-15 16:22N 29°47' W 095°04'2 4.7
2018-Apr-15 16:00N 29°46' W 095°06'1 1.1
2018-Apr-15 15:30N 29°46' W 095°06'1 1.6
2018-Apr-15 15:00N 29°46' W 095°05'1 1.3
2018-Apr-15 14:28N 29°46' W 095°05'2 4.3
2018-Apr-15 13:59N 29°45' W 095°06'3 6.4
2018-Apr-15 13:28N 29°45' W 095°10'3 6.3
2018-Apr-15 12:56N 29°44' W 095°14'1 0.5
2018-Apr-15 11:24N 29°43' W 095°14'4 6.1
2018-Apr-15 10:43N 29°45' W 095°10'1 6.8
2018-Apr-15 10:30N 29°44' W 095°09'3 6.6
2018-Apr-15 10:00N 29°46' W 095°05'0 0.1
2018-Apr-15 07:36N 29°46' W 095°06'1 6.7
2018-Apr-15 07:31N 29°46' W 095°05'0 0.2
2018-Apr-15 05:32N 29°46' W 095°05'0 2.0
2018-Apr-15 05:30N 29°46' W 095°05'0 0.0
2018-Apr-15 05:00N 29°46' W 095°05'1 0.3
2018-Apr-15 01:29N 29°46' W 095°06'3 5.8
2018-Apr-15 01:00N 29°44' W 095°08'5 1.3
2018-Apr-14 21:14N 29°44' W 095°13'3 1.4
2018-Apr-14 19:04N 29°45' W 095°10'0 5.2
2018-Apr-14 18:59N 29°45' W 095°10'2 5.0
2018-Apr-14 18:30N 29°44' W 095°07'3 5.5
2018-Apr-14 18:00N 29°46' W 095°05'0 0.2
2018-Apr-14 16:39N 29°46' W 095°05'1 6.9
2018-Apr-14 16:26N 29°45' W 095°06'0 0.3
2018-Apr-14 15:56N 29°45' W 095°06'3 7.0
2018-Apr-14 15:30N 29°47' W 095°04'2 4.0
2018-Apr-14 15:00N 29°46' W 095°05'1 0.3
2018-Apr-14 12:51N 29°45' W 095°06'1 3.4
2018-Apr-14 12:29N 29°46' W 095°05'2 5.2
2018-Apr-14 12:00N 29°44' W 095°07'0 0.3
2018-Apr-14 11:27N 29°44' W 095°07'  

Dump ship's entire track history